Terminal Aerodrome Forecast
Issued by NWS

Current Version | Previous Version | Text Only | Print | Product List | Glossary Off
Versions: 1 2 3 4 5 6 7 8 9 10 11 12 13 14 15 16 17 18 19 20 21

447
FTUS41 KPBZ 171138
TAFHLG
TAF
KHLG 171138Z 1712/1812 13003KT P6SM SCT025
     FM172000 VRB05KT 2SM -SN OVC008
     FM180100 25005KT P6SM OVC010
     FM180800 26008KT P6SM OVC005=

USA.gov is the U.S. government's official web portal to all federal, state and local government web resources and services.